Time;durP1;ratioP1;P1;durP2;ratioP2;P2;SDS_P1;SDS_P2;PMS_P1;PMS_P2;Temp;Humidity;BMP_temperature;BMP_pressure;BME280_temperature;BME280_humidity;BME280_pressure;Samples;Min_cycle;Max_cycle;Signal;HPM_P1;HPM_P2
2023/07/24 00:01:55;;;;;;;0.20;0.20;;;27.40;57.10;;;28.21;40.90;94557.97;5076153;28;20416;-40
2023/07/24 00:04:23;;;;;;;0.30;0.30;;;27.50;57.50;;;28.21;40.63;94552.56;5075908;28;20255;-39
2023/07/24 00:06:50;;;;;;;0.30;0.30;;;27.40;57.00;;;28.19;40.95;94550.19;5075257;28;20240;-40
2023/07/24 00:09:17;;;;;;;0.22;0.22;;;27.40;57.30;;;28.18;41.10;94537.81;5074349;28;20221;-38
2023/07/24 00:11:44;;;;;;;0.20;0.20;;;27.40;57.10;;;28.16;40.46;94539.25;5075835;28;20197;-41
2023/07/24 00:14:11;;;;;;;0.28;0.28;;;27.40;57.50;;;28.16;40.51;94544.63;5075716;28;20216;-39
2023/07/24 00:16:38;;;;;;;0.20;0.20;;;27.30;57.30;;;28.15;40.52;94537.66;5076038;28;20221;-39
2023/07/24 00:19:06;;;;;;;0.30;0.30;;;27.40;57.30;;;28.16;40.94;94536.53;5075853;28;20202;-41
2023/07/24 00:21:33;;;;;;;0.35;0.35;;;27.30;57.40;;;28.13;40.95;94531.78;5076406;28;20239;-40
2023/07/24 00:24:00;;;;;;;0.30;0.30;;;27.30;57.40;;;28.11;40.38;94524.00;5075025;28;20197;-41
2023/07/24 00:26:27;;;;;;;0.30;0.30;;;27.30;57.40;;;28.10;40.56;94522.44;5075654;28;20204;-39
2023/07/24 00:28:56;;;;;;;0.30;0.30;;;27.30;57.30;;;28.07;40.91;94526.53;5074695;28;20209;-38
2023/07/24 00:31:23;;;;;;;0.30;0.30;;;27.30;57.30;;;28.05;40.82;94526.06;5075698;28;20213;-39
2023/07/24 00:33:50;;;;;;;0.30;0.30;;;27.30;57.40;;;28.04;41.14;94527.13;5075536;28;20274;-39
2023/07/24 00:36:17;;;;;;;0.20;0.20;;;27.20;57.40;;;28.04;40.60;94523.63;5075453;28;20293;-38
2023/07/24 00:38:44;;;;;;;0.25;0.25;;;27.20;57.30;;;28.03;41.00;94527.44;5075871;28;20293;-38
2023/07/24 00:41:14;;;;;;;0.30;0.30;;;27.20;57.10;;;28.03;40.54;94530.16;5074760;28;20242;-38
2023/07/24 00:43:41;;;;;;;0.30;0.30;;;27.20;57.40;;;28.03;40.92;94522.06;5074407;28;20201;-38
2023/07/24 00:46:11;;;;;;;0.20;0.20;;;27.20;57.60;;;28.01;40.49;94525.06;5074831;28;20194;-39
2023/07/24 00:48:39;;;;;;;0.30;0.30;;;27.20;57.10;;;28.00;41.07;94519.97;5075416;28;20687;-39
2023/07/24 00:51:07;;;;;;;0.20;0.20;;;27.20;57.60;;;27.98;40.91;94514.09;5074268;28;20224;-39
2023/07/24 00:53:35;;;;;;;0.30;0.30;;;27.20;57.30;;;27.97;40.55;94513.31;5075405;28;20201;-39
2023/07/24 00:56:02;;;;;;;0.30;0.30;;;27.20;57.50;;;27.96;40.90;94509.84;5075459;28;20216;-39
2023/07/24 00:58:29;;;;;;;0.20;0.20;;;27.20;57.40;;;27.94;40.73;94509.34;5075642;28;20197;-38
2023/07/24 01:00:57;;;;;;;0.20;0.20;;;27.20;57.40;;;27.94;41.09;94508.53;5074526;28;20216;-38
2023/07/24 01:03:34;;;;;;;0.30;0.30;;;27.20;57.60;;;27.92;40.95;94502.69;5074094;28;20204;-39
2023/07/24 01:06:03;;;;;;;0.30;0.30;;;27.10;57.70;;;27.92;41.22;94502.69;5058221;28;20193;-38
2023/07/24 01:08:31;;;;;;;0.28;0.28;;;27.10;57.60;;;27.92;41.34;94497.28;5075184;28;20201;-39
2023/07/24 01:11:05;;;;;;;0.40;0.40;;;27.10;57.80;;;27.92;40.87;94498.06;5075141;28;20205;-38
2023/07/24 01:13:41;;;;;;;0.30;0.30;;;27.10;58.00;;;27.91;40.96;94503.78;5075693;28;20236;-39
2023/07/24 01:16:19;;;;;;;0.30;0.30;;;27.10;57.70;;;27.91;41.18;94501.09;5074161;28;20179;-39
2023/07/24 01:18:49;;;;;;;0.28;0.28;;;27.10;58.00;;;27.91;41.45;94493.00;5091131;28;20627;-39
2023/07/24 01:21:20;;;;;;;0.30;0.30;;;27.10;58.00;;;27.89;41.04;94490.63;5078466;28;20213;-38
2023/07/24 01:24:04;;;;;;;0.30;0.30;;;27.10;57.90;;;27.89;41.31;94492.50;5077895;28;20267;-39
2023/07/24 01:26:31;;;;;;;0.30;0.30;;;27.10;57.90;;;27.89;41.45;94490.63;5079049;28;20212;-39
2023/07/24 01:28:59;;;;;;;0.30;0.30;;;27.10;57.60;;;27.89;41.08;94485.25;5078976;28;20196;-40
2023/07/24 01:31:26;;;;;;;0.20;0.20;;;27.10;57.80;;;27.89;40.83;94481.72;5079233;28;20252;-40
2023/07/24 01:33:53;;;;;;;0.25;0.25;;;27.10;57.90;;;27.89;41.33;94485.25;5061263;28;20206;-39
2023/07/24 01:36:20;;;;;;;0.40;0.40;;;27.10;57.90;;;27.88;41.00;94485.53;5077814;28;20202;-38
2023/07/24 01:38:50;;;;;;;0.20;0.20;;;27.10;57.40;;;27.86;41.07;94477.75;5078013;28;20280;-39
2023/07/24 01:41:18;;;;;;;0.20;0.20;;;27.10;57.80;;;27.87;41.21;94479.34;5077600;28;20632;-42
2023/07/24 01:43:45;;;;;;;0.30;0.30;;;27.10;58.00;;;27.87;41.31;94473.16;5077480;28;20221;-39
2023/07/24 01:46:12;;;;;;;0.30;0.30;;;27.10;58.30;;;27.87;41.50;94470.47;5077642;28;20204;-39
2023/07/24 01:48:40;;;;;;;0.30;0.30;;;27.10;58.30;;;27.86;42.03;94466.19;5077579;28;20242;-42
2023/07/24 01:51:07;;;;;;;0.30;0.30;;;27.10;58.60;;;27.87;42.05;94468.56;5077836;28;20204;-39
2023/07/24 01:53:34;;;;;;;0.30;0.30;;;27.10;58.70;;;27.87;41.77;94465.06;5077463;28;20208;-39
2023/07/24 01:56:01;;;;;;;0.30;0.30;;;27.10;58.90;;;27.88;42.02;94462.09;5078366;28;20585;-40
2023/07/24 01:58:28;;;;;;;0.30;0.30;;;27.10;58.60;;;27.86;41.87;94466.19;5077496;28;20203;-40
2023/07/24 02:00:56;;;;;;;0.30;0.30;;;27.10;58.50;;;27.86;41.64;94468.91;5077477;28;20221;-38
2023/07/24 02:03:23;;;;;;;0.20;0.20;;;27.10;58.50;;;27.85;41.75;94467.31;5078691;28;20204;-40
2023/07/24 02:05:51;;;;;;;0.20;0.20;;;27.10;58.40;;;27.83;41.58;94462.22;5078213;28;20197;-39
2023/07/24 02:08:18;;;;;;;0.30;0.30;;;27.10;58.50;;;27.82;42.24;94460.63;5077404;28;20200;-40
2023/07/24 02:10:50;;;;;;;0.30;0.30;;;27.10;58.50;;;27.79;41.33;94462.06;5077274;28;20206;-43
2023/07/24 02:13:17;;;;;;;0.30;0.30;;;27.10;57.80;;;27.79;41.88;94458.56;5077337;28;20260;-41
2023/07/24 02:15:48;;;;;;;0.20;0.20;;;27.10;58.10;;;27.76;42.01;94456.50;5077167;28;20205;-39
2023/07/24 02:18:16;;;;;;;0.28;0.28;;;27.10;58.40;;;27.76;42.04;94457.28;5078560;28;20340;-39
2023/07/24 02:20:50;;;;;;;0.30;0.30;;;27.10;58.30;;;27.75;42.37;94460.28;5078388;28;20628;-39
2023/07/24 02:23:17;;;;;;;0.30;0.30;;;27.10;58.90;;;27.75;41.96;94460.28;5077973;28;20250;-39
2023/07/24 02:25:44;;;;;;;0.30;0.30;;;27.00;58.90;;;27.76;42.58;94462.66;5077482;28;20212;-38
2023/07/24 02:28:11;;;;;;;0.30;0.30;;;27.10;59.20;;;27.75;42.22;94455.69;5078090;28;20224;-38
2023/07/24 02:30:40;;;;;;;0.30;0.30;;;27.00;59.40;;;27.75;42.39;94453.00;5076999;28;20211;-39
2023/07/24 02:33:07;;;;;;;0.30;0.30;;;27.00;59.50;;;27.75;42.67;94441.44;5077872;28;20188;-39
2023/07/24 02:35:41;;;;;;;0.38;0.38;;;27.10;59.70;;;27.75;42.96;94446.81;5077762;28;20194;-38
2023/07/24 02:38:09;;;;;;;0.30;0.30;;;27.00;59.60;;;27.75;42.43;94444.91;5076621;28;20229;-39
2023/07/24 02:40:41;;;;;;;0.30;0.30;;;27.10;59.70;;;27.76;43.12;94446.50;5076963;28;20198;-40
2023/07/24 02:43:08;;;;;;;0.30;0.30;;;27.10;59.50;;;27.74;42.15;94440.63;5077969;28;20191;-38
2023/07/24 02:45:37;;;;;;;0.30;0.30;;;27.10;59.20;;;27.73;42.91;94441.72;5076761;28;20242;-38
2023/07/24 02:48:05;;;;;;;0.20;0.20;;;27.10;59.30;;;27.73;42.66;94452.50;5077745;28;20202;-38
2023/07/24 02:50:33;;;;;;;0.30;0.30;;;27.10;59.40;;;27.72;42.48;94447.44;5077467;28;20182;-38
2023/07/24 02:53:01;;;;;;;0.30;0.30;;;27.00;59.60;;;27.71;43.11;94449.34;5076586;28;20240;-39
2023/07/24 02:55:28;;;;;;;0.20;0.20;;;27.00;59.70;;;27.70;43.03;94450.44;5077258;28;20206;-38
2023/07/24 02:57:55;;;;;;;0.30;0.30;;;27.00;59.90;;;27.71;42.92;94453.94;5059824;28;20539;-39
2023/07/24 03:00:23;;;;;;;0.30;0.30;;;27.00;59.90;;;27.71;43.22;94445.84;5077477;28;20202;-38
2023/07/24 03:02:52;;;;;;;0.30;0.30;;;27.00;60.00;;;27.70;43.28;94455.84;5077425;28;20223;-39
2023/07/24 03:05:20;;;;;;;0.30;0.30;;;27.00;59.50;;;27.69;43.17;94456.94;5076967;28;20188;-39
2023/07/24 03:07:47;;;;;;;0.30;0.30;;;27.00;59.60;;;27.69;42.73;94453.47;5077136;28;20220;-38
2023/07/24 03:10:14;;;;;;;0.30;0.30;;;27.00;59.70;;;27.69;42.92;94451.56;5076179;28;20511;-38
2023/07/24 03:12:41;;;;;;;0.30;0.30;;;27.00;59.90;;;27.67;43.29;94442.97;5076967;28;20686;-38
2023/07/24 03:15:09;;;;;;;0.22;0.22;;;27.00;60.00;;;27.66;43.46;94438.72;5076026;28;20232;-38
2023/07/24 03:17:36;;;;;;;0.30;0.30;;;27.00;60.00;;;27.67;43.39;94448.38;5076522;28;20205;-39
2023/07/24 03:20:19;;;;;;;0.20;0.20;;;27.00;60.10;;;27.65;43.11;94450.59;5059350;28;20307;-39
2023/07/24 03:22:47;;;;;;;0.30;0.30;;;27.00;59.80;;;27.63;43.06;94448.19;5059314;28;20550;-38
2023/07/24 03:25:14;;;;;;;0.20;0.20;;;27.00;59.80;;;27.62;43.00;94446.63;5075672;28;20291;-38
2023/07/24 03:27:41;;;;;;;0.20;0.20;;;27.00;60.00;;;27.60;43.38;94448.84;5059114;28;20588;-39
2023/07/24 03:30:09;;;;;;;0.30;0.30;;;27.00;59.90;;;27.59;43.23;94452.63;5076655;28;20293;-38
2023/07/24 03:32:37;;;;;;;0.40;0.40;;;27.00;59.90;;;27.56;43.14;94447.88;5076343;28;20708;-38
2023/07/24 03:35:06;;;;;;;0.20;0.20;;;27.00;59.40;;;27.50;42.77;94443.72;5076238;28;20651;-38
2023/07/24 03:37:36;;;;;;;0.30;0.30;;;26.90;58.90;;;27.46;42.87;94448.13;5075601;28;20640;-38
2023/07/24 03:40:04;;;;;;;0.30;0.30;;;26.90;59.30;;;27.41;42.78;94445.59;5076522;28;20618;-39
2023/07/24 03:42:32;;;;;;;0.30;0.30;;;26.90;59.40;;;27.39;43.23;94445.88;5076025;28;20315;-40
2023/07/24 03:44:59;;;;;;;0.25;0.25;;;26.80;59.50;;;27.37;43.17;94449.97;5076202;28;20238;-39
2023/07/24 03:47:26;;;;;;;0.30;0.30;;;26.80;59.60;;;27.35;43.10;94458.34;5076164;28;20264;-39
2023/07/24 03:49:54;;;;;;;0.30;0.30;;;26.80;59.80;;;27.35;43.56;94463.75;5075252;28;20198;-38
2023/07/24 03:52:22;;;;;;;0.30;0.30;;;26.80;59.90;;;27.33;43.48;94463.25;5076020;28;20256;-39
2023/07/24 03:54:49;;;;;;;0.30;0.30;;;26.70;60.00;;;27.33;43.47;94461.38;5076293;28;20284;-40
2023/07/24 03:57:16;;;;;;;0.30;0.30;;;26.70;60.20;;;27.35;43.42;94462.97;5076602;28;20201;-39
2023/07/24 03:59:43;;;;;;;0.20;0.20;;;26.70;60.20;;;27.33;43.51;94460.56;5075203;28;20205;-39
2023/07/24 04:02:10;;;;;;;0.30;0.30;;;26.70;60.10;;;27.34;43.86;94462.16;5075842;28;20215;-38
2023/07/24 04:04:38;;;;;;;0.20;0.20;;;26.70;60.30;;;27.33;43.72;94466.75;5074907;28;20189;-38
2023/07/24 04:07:05;;;;;;;0.30;0.30;;;26.70;60.30;;;27.34;43.60;94462.16;5075990;28;20223;-38
2023/07/24 04:09:32;;;;;;;0.30;0.30;;;26.70;60.30;;;27.33;43.69;94468.63;5075139;28;20188;-38
2023/07/24 04:12:00;;;;;;;0.38;0.38;;;26.70;60.00;;;27.31;43.19;94466.25;5075947;28;20211;-39
2023/07/24 04:14:28;;;;;;;0.28;0.28;;;26.70;60.20;;;27.30;43.65;94458.50;5076090;28;20589;-40
2023/07/24 04:16:55;;;;;;;0.30;0.30;;;26.70;60.30;;;27.31;43.80;94458.19;5075723;28;20192;-38
2023/07/24 04:19:23;;;;;;;0.30;0.30;;;26.70;60.50;;;27.32;43.62;94462.47;5075386;28;20283;-38
2023/07/24 04:21:50;;;;;;;0.40;0.40;;;26.70;60.50;;;27.33;44.16;94461.38;5074855;28;20231;-37
2023/07/24 04:24:17;;;;;;;0.30;0.30;;;26.70;60.60;;;27.34;44.12;94470.22;5075215;28;20524;-38
2023/07/24 04:26:44;;;;;;;0.20;0.20;;;26.70;60.40;;;27.32;43.79;94465.16;5075688;28;20209;-38
2023/07/24 04:29:11;;;;;;;0.20;0.20;;;26.70;60.50;;;27.33;43.91;94455.16;5075498;28;20198;-38
2023/07/24 04:31:38;;;;;;;0.30;0.30;;;26.70;60.50;;;27.34;43.73;94464.84;5075340;28;20197;-38
2023/07/24 04:34:05;;;;;;;0.22;0.22;;;26.70;60.50;;;27.36;44.48;94469.94;5075023;28;20521;-39
2023/07/24 04:36:32;;;;;;;0.30;0.30;;;26.70;60.70;;;27.35;44.36;94466.44;5075525;28;20207;-39
2023/07/24 04:38:59;;;;;;;0.20;0.20;;;26.70;60.80;;;27.36;44.44;94465.34;5075190;28;20210;-38
2023/07/24 04:41:26;;;;;;;0.20;0.20;;;26.80;60.90;;;27.36;44.26;94461.88;5075310;28;20220;-38
2023/07/24 04:43:53;;;;;;;0.20;0.20;;;26.70;60.30;;;27.35;44.15;94460.25;5075404;28;20191;-37
2023/07/24 04:46:21;;;;;;;0.30;0.30;;;26.80;60.50;;;27.33;43.97;94460.56;5075701;28;20184;-38
2023/07/24 04:48:48;;;;;;;0.30;0.30;;;26.80;60.80;;;27.34;44.30;94462.16;5075088;28;20194;-38
2023/07/24 04:51:15;;;;;;;0.30;0.30;;;26.80;60.80;;;27.33;44.44;94458.66;5075031;28;20205;-38
2023/07/24 04:53:42;;;;;;;0.28;0.28;;;26.70;60.90;;;27.35;44.84;94457.56;5074956;28;20201;-37
2023/07/24 04:56:10;;;;;;;0.30;0.30;;;26.80;60.90;;;27.37;44.52;94466.94;5075065;28;20228;-39
2023/07/24 04:58:37;;;;;;;0.30;0.30;;;26.80;61.10;;;27.35;44.66;94463.75;5076150;28;20191;-41
2023/07/24 05:01:05;;;;;;;0.30;0.30;;;26.80;61.10;;;27.38;45.05;94465.03;5075077;28;20205;-38
2023/07/24 05:03:32;;;;;;;0.30;0.30;;;26.80;61.00;;;27.38;44.63;94455.06;5074199;28;20659;-38
2023/07/24 05:05:59;;;;;;;0.20;0.20;;;26.80;61.10;;;27.39;44.66;94478.19;5074867;28;20276;-38
2023/07/24 05:08:27;;;;;;;0.30;0.30;;;26.80;61.20;;;27.40;45.01;94473.59;5075204;28;20276;-38
2023/07/24 05:10:58;;;;;;;0.20;0.20;;;26.80;61.30;;;27.41;44.87;94470.63;5075108;28;20598;-38
2023/07/24 05:13:26;;;;;;;0.40;0.40;;;26.80;61.30;;;27.41;44.84;94473.31;5075433;28;20251;-39
2023/07/24 05:15:53;;;;;;;0.20;0.20;;;26.80;61.40;;;27.42;45.38;94472.19;5074755;28;20199;-38
2023/07/24 05:18:20;;;;;;;0.30;0.30;;;26.90;61.50;;;27.42;45.48;94469.50;5073912;28;20201;-38
2023/07/24 05:20:51;;;;;;;0.30;0.30;;;26.90;61.50;;;27.45;45.00;94473.47;5075258;28;20292;-40
2023/07/24 05:23:18;;;;;;;0.20;0.20;;;26.90;61.50;;;27.45;45.22;94468.91;5074496;28;20205;-37
2023/07/24 05:25:46;;;;;;;0.30;0.30;;;26.90;61.50;;;27.46;45.29;94467.00;5073885;28;20201;-37
2023/07/24 05:28:13;;;;;;;0.30;0.30;;;26.90;61.50;;;27.46;45.20;94459.69;5074778;28;20187;-37
2023/07/24 05:30:40;;;;;;;0.30;0.30;;;26.90;61.60;;;27.46;45.32;94472.38;5075129;28;20187;-40
2023/07/24 05:33:07;;;;;;;0.20;0.20;;;26.90;61.70;;;27.47;45.28;94480.13;5075078;28;20671;-38
2023/07/24 05:35:35;;;;;;;0.30;0.30;;;26.90;61.70;;;27.48;45.33;94470.97;5074648;28;20200;-37
2023/07/24 05:38:02;;;;;;;0.22;0.22;;;26.90;61.70;;;27.50;45.28;94469.88;5074952;28;20211;-38
2023/07/24 05:40:29;;;;;;;0.22;0.22;;;26.90;61.70;;;27.50;45.71;94453.69;5074606;28;20188;-38
2023/07/24 05:42:56;;;;;;;0.30;0.30;;;26.90;61.70;;;27.50;45.55;94442.94;5073886;28;20210;-38
2023/07/24 05:45:23;;;;;;;0.30;0.30;;;27.00;61.80;;;27.52;45.60;94429.94;5074392;28;20238;-39
2023/07/24 05:47:50;;;;;;;0.20;0.20;;;27.00;61.70;;;27.52;45.28;94409.19;5074546;28;20655;-38
2023/07/24 05:50:17;;;;;;;0.30;0.30;;;27.00;61.80;;;27.53;45.72;94408.09;5074704;28;20519;-42
2023/07/24 05:52:44;;;;;;;0.30;0.30;;;26.90;61.70;;;27.53;45.42;94410.78;5074483;28;20202;-41
2023/07/24 05:55:12;;;;;;;0.30;0.30;;;27.00;61.70;;;27.54;45.54;94401.59;5073497;28;20253;-41
2023/07/24 05:57:39;;;;;;;0.30;0.30;;;27.00;61.50;;;27.55;45.38;94411.28;5073515;28;20212;-42
2023/07/24 06:00:07;;;;;;;0.20;0.20;;;27.00;61.60;;;27.56;45.32;94415.56;5074775;28;20208;-41
2023/07/24 06:02:37;;;;;;;0.30;0.30;;;27.00;61.60;;;27.56;45.50;94423.63;5074409;28;20594;-39
2023/07/24 06:05:05;;;;;;;0.40;0.40;;;27.00;61.60;;;27.57;45.37;94424.41;5074259;28;20194;-38
2023/07/24 06:07:32;;;;;;;0.30;0.30;;;27.00;61.70;;;27.58;45.26;94424.09;5077373;28;20200;-39
2023/07/24 06:09:59;;;;;;;0.35;0.35;;;27.00;61.70;;;27.58;45.63;94420.63;5077689;28;20228;-39
2023/07/24 06:12:26;;;;;;;0.30;0.30;;;27.00;61.70;;;27.58;45.50;94410.63;5078211;28;20198;-39
2023/07/24 06:14:53;;;;;;;0.20;0.20;;;27.00;61.80;;;27.59;45.59;94414.13;5077437;28;20229;-40
2023/07/24 06:17:20;;;;;;;0.30;0.30;;;27.00;61.80;;;27.59;45.67;94417.59;5077019;28;20203;-39
2023/07/24 06:19:48;;;;;;;0.20;0.20;;;27.00;61.80;;;27.60;45.92;94419.19;5077560;28;20289;-39
2023/07/24 06:22:15;;;;;;;0.20;0.20;;;27.00;61.80;;;27.62;45.64;94425.06;5077638;28;20233;-39
2023/07/24 06:24:42;;;;;;;0.22;0.22;;;27.10;61.80;;;27.63;45.43;94425.84;5078069;28;20220;-39
2023/07/24 06:27:09;;;;;;;0.30;0.30;;;27.10;61.80;;;27.62;46.03;94429.66;5077387;28;20195;-39
2023/07/24 06:29:36;;;;;;;0.30;0.30;;;27.10;61.80;;;27.63;45.97;94436.63;5077324;28;20195;-39
2023/07/24 06:32:07;;;;;;;0.30;0.30;;;27.10;61.80;;;27.64;45.55;94422.84;5077309;28;20232;-40
2023/07/24 06:34:34;;;;;;;0.30;0.30;;;27.00;61.80;;;27.66;46.02;94424.44;5077236;28;20197;-39
2023/07/24 06:37:02;;;;;;;0.30;0.30;;;27.10;61.80;;;27.66;46.08;94430.63;5077354;28;20325;-39
2023/07/24 06:39:46;;;;;;;0.20;0.20;;;27.10;61.80;;;27.67;45.64;94423.34;5077783;28;20260;-39
2023/07/24 06:42:14;;;;;;;0.30;0.30;;;27.10;61.70;;;27.68;45.81;94424.94;5077298;28;20222;-39
2023/07/24 06:44:41;;;;;;;0.35;0.35;;;27.10;61.70;;;27.69;45.77;94427.31;5076178;28;20239;-39
2023/07/24 06:47:08;;;;;;;0.30;0.30;;;27.10;61.70;;;27.71;45.33;94426.97;5076774;28;20195;-39
2023/07/24 06:49:35;;;;;;;0.30;0.30;;;27.10;61.70;;;27.71;45.96;94416.19;5077467;28;20192;-39
2023/07/24 06:52:03;;;;;;;0.30;0.30;;;27.10;61.70;;;27.72;45.44;94404.31;5077158;28;20188;-39
2023/07/24 06:54:30;;;;;;;0.40;0.40;;;27.10;61.70;;;27.73;45.24;94419.38;5076828;28;20208;-39
2023/07/24 06:56:57;;;;;;;0.28;0.28;;;27.10;61.70;;;27.74;45.49;94421.75;5076721;28;20198;-39
2023/07/24 06:59:24;;;;;;;0.40;0.40;;;27.10;61.70;;;27.73;45.21;94420.16;5076791;28;20202;-39
2023/07/24 07:01:51;;;;;;;0.30;0.30;;;27.20;61.80;;;27.75;45.89;94427.97;5076109;28;20270;-38
2023/07/24 07:04:18;;;;;;;0.30;0.30;;;27.20;61.90;;;27.75;45.98;94428.75;5076757;28;20565;-39
2023/07/24 07:06:46;;;;;;;0.22;0.22;;;27.20;61.70;;;27.77;45.39;94437.31;5076486;28;20396;-39
2023/07/24 07:09:13;;;;;;;0.30;0.30;;;27.20;61.80;;;27.78;45.28;94436.22;5092420;28;20198;-39
2023/07/24 07:11:43;;;;;;;0.30;0.30;;;27.20;61.60;;;27.79;45.32;94442.38;5076794;28;20682;-39
2023/07/24 07:14:10;;;;;;;0.30;0.30;;;27.20;61.70;;;27.80;45.39;94449.38;5076470;28;20263;-39
2023/07/24 07:16:37;;;;;;;0.32;0.32;;;27.20;61.80;;;27.80;45.84;94442.06;5076146;28;20200;-39
2023/07/24 07:19:04;;;;;;;0.28;0.28;;;27.20;61.80;;;27.82;45.80;94439.06;5076321;28;20282;-39
2023/07/24 07:21:31;;;;;;;0.30;0.30;;;27.20;61.80;;;27.82;45.49;94443.66;5076620;28;20197;-38
2023/07/24 07:23:58;;;;;;;0.30;0.30;;;27.20;61.80;;;27.82;45.38;94446.34;5076455;28;20221;-39
2023/07/24 07:26:26;;;;;;;0.20;0.20;;;27.20;61.80;;;27.82;45.76;94446.34;5076209;28;20200;-39
2023/07/24 07:28:54;;;;;;;0.30;0.30;;;27.20;61.80;;;27.82;45.89;94432.88;5075533;28;20208;-39
2023/07/24 07:31:21;;;;;;;0.32;0.32;;;27.20;61.80;;;27.82;45.80;94439.06;5076117;28;20204;-39
2023/07/24 07:33:48;;;;;;;0.20;0.20;;;27.20;61.80;;;27.82;45.94;94443.66;5076123;28;20194;-39
2023/07/24 07:36:15;;;;;;;0.25;0.25;;;27.20;61.80;;;27.83;45.57;94437.97;5076258;28;20199;-39
2023/07/24 07:38:42;;;;;;;0.20;0.20;;;27.20;61.80;;;27.83;45.87;94432.59;5075976;28;20204;-39
2023/07/24 07:41:10;;;;;;;0.30;0.30;;;27.20;61.80;;;27.83;45.81;94424.50;5075933;28;20293;-39
2023/07/24 07:43:37;;;;;;;0.22;0.22;;;27.20;61.90;;;27.84;45.87;94412.59;5075846;28;20571;-40
2023/07/24 07:46:04;;;;;;;0.25;0.25;;;27.20;62.00;;;27.84;45.92;94415.28;5076191;28;20603;-43
2023/07/24 07:48:32;;;;;;;0.20;0.20;;;27.20;62.00;;;27.84;46.00;94415.28;5076178;28;20260;-38
2023/07/24 07:50:59;;;;;;;0.30;0.30;;;27.20;62.00;;;27.85;45.61;94411.47;5075822;28;20230;-39
2023/07/24 07:53:26;;;;;;;0.28;0.28;;;27.20;62.10;;;27.86;46.11;94383.44;5076431;28;20198;-39
2023/07/24 07:55:59;;;;;;;0.20;0.20;;;27.20;62.10;;;27.87;45.64;94373.44;5075647;28;20248;-38
2023/07/24 07:58:27;;;;;;;0.30;0.30;;;27.20;62.10;;;27.88;45.87;94366.94;5076309;28;20179;-39
2023/07/24 08:00:54;;;;;;;0.30;0.30;;;27.20;62.00;;;27.89;45.78;94363.13;5075995;28;20205;-39
2023/07/24 08:03:21;;;;;;;0.30;0.30;;;27.20;62.00;;;27.89;45.35;94361.25;5076691;28;20290;-40
2023/07/24 08:05:49;;;;;;;0.30;0.30;;;27.20;61.90;;;27.89;45.25;94357.75;5075789;28;20191;-41
2023/07/24 08:08:16;;;;;;;0.22;0.22;;;27.20;61.70;;;27.91;45.73;94344.75;5091909;28;20202;-38
2023/07/24 08:10:43;;;;;;;0.40;0.40;;;27.20;61.70;;;27.92;45.56;94333.66;5075735;28;20191;-41
2023/07/24 08:13:11;;;;;;;0.30;0.30;;;27.30;61.70;;;27.94;45.13;94326.06;5075587;28;20625;-37
2023/07/24 08:15:38;;;;;;;0.30;0.30;;;27.30;61.50;;;27.95;45.07;94337.63;5074993;28;20207;-40
2023/07/24 08:18:06;;;;;;;0.30;0.30;;;27.20;61.40;;;27.95;45.32;94327.66;5075266;28;20620;-40
2023/07/24 08:20:36;;;;;;;0.20;0.20;;;27.20;61.30;;;27.96;44.77;94331.94;5075702;28;20264;-41
2023/07/24 08:23:04;;;;;;;0.30;0.30;;;27.30;61.40;;;27.99;44.77;94330.50;5075480;28;20207;-41
2023/07/24 08:25:31;;;;;;;0.20;0.20;;;27.30;61.30;;;28.01;44.62;94314.00;5075308;28;20555;-41
2023/07/24 08:27:58;;;;;;;0.30;0.30;;;27.40;61.10;;;28.01;44.91;94292.44;5075399;28;20284;-37
2023/07/24 08:30:28;;;;;;;0.30;0.30;;;27.40;61.00;;;28.02;44.23;94302.91;5075709;28;20615;-41
2023/07/24 08:32:56;;;;;;;0.30;0.30;;;27.40;61.00;;;28.02;44.19;94305.59;5074517;28;20219;-37
2023/07/24 08:35:24;;;;;;;0.30;0.30;;;27.30;60.80;;;28.03;44.21;94292.91;5075725;28;20187;-39
2023/07/24 08:37:51;;;;;;;0.20;0.20;;;27.40;60.90;;;28.03;44.58;94282.13;5075050;28;20584;-39
2023/07/24 08:40:19;;;;;;;0.20;0.20;;;27.30;60.80;;;28.04;44.64;94287.19;5075273;28;20203;-41
2023/07/24 08:42:50;;;;;;;0.30;0.30;;;27.40;60.90;;;28.05;44.03;94279.94;5074985;28;20203;-40
2023/07/24 08:45:18;;;;;;;0.25;0.25;;;27.40;60.70;;;28.05;44.63;94261.06;5075038;28;20247;-40
2023/07/24 08:47:45;;;;;;;0.22;0.22;;;27.40;61.70;;;28.06;44.47;94260.75;5057724;28;20626;-43
2023/07/24 08:50:15;;;;;;;0.30;0.30;;;27.40;60.90;;;28.07;43.86;94248.84;5075020;28;20195;-38
2023/07/24 08:52:43;;;;;;;0.20;0.20;;;27.40;60.80;;;28.07;44.11;94245.38;5076436;28;20226;-37
2023/07/24 08:55:11;;;;;;;0.20;0.20;;;27.40;60.70;;;28.08;43.94;94246.94;5076642;28;20189;-40
2023/07/24 08:57:38;;;;;;;0.30;0.30;;;27.40;60.60;;;28.08;43.94;94253.13;5090838;28;20211;-37
2023/07/24 09:00:06;;;;;;;0.22;0.22;;;27.40;60.60;;;28.10;43.86;94252.81;5075086;28;20196;-38
2023/07/24 09:02:35;;;;;;;0.20;0.20;;;27.40;60.40;;;28.09;43.79;94254.72;5075520;28;20243;-37
2023/07/24 09:05:03;;;;;;;0.20;0.20;;;27.40;60.60;;;28.12;43.71;94255.97;5076414;28;20220;-38
2023/07/24 09:07:31;;;;;;;0.30;0.30;;;27.40;60.50;;;28.12;44.10;94253.28;5074673;28;20189;-39
2023/07/24 09:09:58;;;;;;;0.30;0.30;;;27.40;60.40;;;28.14;44.11;94252.94;5074852;28;20269;-38
2023/07/24 09:12:25;;;;;;;0.30;0.30;;;27.40;60.50;;;28.14;44.18;94248.38;5074692;28;20216;-39
2023/07/24 09:15:06;;;;;;;0.30;0.30;;;27.40;60.50;;;28.15;44.12;94263.44;5074713;28;20565;-39
2023/07/24 09:17:34;;;;;;;0.20;0.20;;;27.50;60.50;;;28.16;43.62;94262.34;5074718;28;20169;-39
2023/07/24 09:20:03;;;;;;;0.30;0.30;;;27.50;60.50;;;28.18;43.60;94265.47;5073785;28;20606;-37
2023/07/24 09:22:31;;;;;;;0.30;0.30;;;27.50;60.50;;;28.20;43.95;94265.97;5075722;28;20195;-37
2023/07/24 09:25:03;;;;;;;0.30;0.30;;;27.50;60.60;;;28.21;44.00;94255.94;5075138;28;20187;-41
2023/07/24 09:27:31;;;;;;;0.20;0.20;;;27.50;60.60;;;28.24;44.20;94239.16;5074646;28;20607;-40
2023/07/24 09:30:00;;;;;;;0.30;0.30;;;27.50;60.50;;;28.26;43.96;94239.63;5073958;28;20195;-42
2023/07/24 09:32:28;;;;;;;0.20;0.20;;;27.50;60.30;;;28.28;43.99;94222.00;5074202;28;20585;-41
2023/07/24 09:34:55;;;;;;;0.30;0.30;;;27.50;60.30;;;28.31;43.88;94231.34;5074737;28;20194;-40
2023/07/24 09:37:34;;;;;;;0.20;0.20;;;27.60;60.40;;;28.31;43.85;94225.16;5074290;28;20271;-39
2023/07/24 09:40:04;;;;;;;0.40;0.40;;;27.60;60.20;;;28.33;43.85;94231.03;5075211;28;20184;-39
2023/07/24 09:42:34;;;;;;;0.20;0.20;;;27.60;60.30;;;28.35;43.42;94232.28;5078167;28;20204;-39
2023/07/24 09:45:08;;;;;;;0.30;0.30;;;27.60;60.20;;;28.36;43.10;94225.00;5078312;28;20240;-39
2023/07/24 09:47:35;;;;;;;0.30;0.30;;;27.60;60.10;;;28.38;43.35;94228.97;5077099;28;20270;-40
2023/07/24 09:50:23;;;;;;;0.30;0.30;;;27.70;60.20;;;28.40;43.40;94228.63;5078326;28;20189;-39
2023/07/24 09:52:51;;;;;;;0.20;0.20;;;27.70;60.10;;;28.41;42.84;94231.00;5077188;28;20195;-40
2023/07/24 09:55:29;;;;;;;0.28;0.28;;;27.70;60.00;;;28.43;43.55;94225.31;5077130;28;20219;-39
2023/07/24 09:57:58;;;;;;;0.30;0.30;;;27.70;60.10;;;28.43;43.02;94215.28;5077384;28;20203;-39
2023/07/24 10:00:26;;;;;;;0.30;0.30;;;27.70;60.00;;;28.45;43.52;94209.56;5076938;28;20273;-40
2023/07/24 10:02:53;;;;;;;0.20;0.20;;;27.70;60.90;;;28.47;42.80;94214.66;5077774;28;20308;-40
2023/07/24 10:05:21;;;;;;;0.30;0.30;;;27.70;59.90;;;28.49;43.38;94207.03;5077248;28;20279;-40
2023/07/24 10:07:48;;;;;;;0.20;0.20;;;27.70;59.80;;;28.51;42.91;94204.81;5077836;28;20200;-39
2023/07/24 10:10:15;;;;;;;0.30;0.30;;;27.70;59.80;;;28.53;43.29;94206.06;5076885;28;20209;-40
2023/07/24 10:12:43;;;;;;;0.30;0.30;;;27.80;59.90;;;28.54;42.81;94206.84;5077185;28;20195;-40
2023/07/24 10:15:11;;;;;;;0.35;0.35;;;27.80;59.80;;;28.56;43.41;94200.03;5077564;28;20196;-40
2023/07/24 10:17:41;;;;;;;0.20;0.20;;;27.80;59.70;;;28.58;43.21;94191.59;5077646;28;20287;-40
2023/07/24 10:20:11;;;;;;;0.30;0.30;;;27.80;59.60;;;28.59;43.29;94193.97;5077591;28;20192;-40
2023/07/24 10:22:42;;;;;;;0.30;0.30;;;27.80;59.70;;;28.63;42.55;94190.63;5077687;28;20213;-40
2023/07/24 10:25:10;;;;;;;0.30;0.30;;;27.80;59.70;;;28.64;42.83;94184.91;5076939;28;20213;-39